Time;durP1;ratioP1;P1;durP2;ratioP2;P2;SDS_P1;SDS_P2;PMS_P1;PMS_P2;Temp;Humidity;BMP_temperature;BMP_pressure;BME280_temperature;BME280_humidity;BME280_pressure;Samples;Min_cycle;Max_cycle;Signal;HPM_P1;HPM_P2
2022/07/03 00:01:57;;;;;;;8.57;1.75;;;;;;;17.92;59.63;101847.81;5075022;27;96624;-35
2022/07/03 00:04:22;;;;;;;2.35;1.50;;;;;;;17.87;58.94;101850.03;5075271;27;97497;-35
2022/07/03 00:06:48;;;;;;;2.38;1.23;;;;;;;17.85;58.52;101841.91;5074439;27;97387;-35
2022/07/03 00:09:13;;;;;;;1.77;1.20;;;;;;;17.92;58.73;101853.28;5072588;27;100733;-35
2022/07/03 00:11:39;;;;;;;4.95;1.38;;;;;;;17.90;58.21;101844.28;5075168;27;96596;-35
2022/07/03 00:14:04;;;;;;;1.88;1.00;;;;;;;17.91;58.55;101846.06;5074914;27;96789;-35
2022/07/03 00:16:30;;;;;;;1.80;1.10;;;;;;;17.98;58.43;101853.69;5074462;27;99523;-35
2022/07/03 00:18:55;;;;;;;3.00;1.20;;;;;;;17.94;58.18;101837.59;5073291;27;98907;-35
2022/07/03 00:21:28;;;;;;;4.70;1.20;;;;;;;17.99;58.63;101838.97;5075266;27;96561;-35
2022/07/03 00:24:04;;;;;;;1.85;0.85;;;;;;;18.02;58.11;101835.16;5073959;27;96758;-35
2022/07/03 00:26:34;;;;;;;3.45;0.90;;;;;;;18.10;58.80;101848.25;5073144;27;100618;-35
2022/07/03 00:29:09;;;;;;;2.75;0.70;;;;;;;18.09;58.55;101846.50;5072839;27;100846;-35
2022/07/03 00:31:35;;;;;;;1.85;0.98;;;;;;;18.09;58.34;101854.72;5074213;27;96475;-35
2022/07/03 00:34:01;;;;;;;1.77;0.90;;;;;;;18.09;57.88;101846.50;5074860;27;96896;-35
2022/07/03 00:36:34;;;;;;;3.83;0.88;;;;;;;18.13;58.04;101851.63;5074518;27;98129;-35
2022/07/03 00:39:00;;;;;;;10.05;1.20;;;;;;;18.17;57.92;101855.03;5075338;27;99243;-34
2022/07/03 00:41:28;;;;;;;1.88;1.10;;;;;;;18.17;57.71;101855.88;5077992;27;96644;-35
2022/07/03 00:43:53;;;;;;;3.85;1.35;;;;;;;18.14;57.61;101841.53;5076966;27;96930;-35
2022/07/03 00:46:22;;;;;;;1.75;0.77;;;;;;;18.15;58.04;101844.16;5077605;27;99107;-35
2022/07/03 00:48:49;;;;;;;2.13;0.80;;;;;;;18.14;57.71;101842.44;5076587;27;101475;-35
2022/07/03 00:51:17;;;;;;;3.20;1.02;;;;;;;18.18;57.79;101849.41;5076322;27;96648;-34
2022/07/03 00:53:46;;;;;;;1.75;0.75;;;;;;;18.20;57.74;101852.91;5076733;27;96833;-35
2022/07/03 00:56:13;;;;;;;2.38;0.70;;;;;;;18.13;58.21;101843.41;5075899;27;100909;-34
2022/07/03 00:58:40;;;;;;;2.17;0.70;;;;;;;18.12;58.32;101847.16;5076086;27;100929;-34
2022/07/03 01:01:06;;;;;;;1.40;0.68;;;;;;;18.12;58.86;101852.63;5078067;27;96483;-35
2022/07/03 01:03:39;;;;;;;1.67;0.80;;;;;;;18.15;58.31;101854.25;5076440;27;96599;-35
2022/07/03 01:06:12;;;;;;;1.05;0.80;;;;;;;18.15;58.37;101840.56;5076112;27;100648;-35
2022/07/03 01:08:45;;;;;;;4.10;1.45;;;;;;;18.16;58.48;101840.44;5075442;27;100929;-35
2022/07/03 01:11:37;;;;;;;3.78;0.55;;;;;;;18.16;58.52;101837.69;5076684;27;97321;-35
2022/07/03 01:14:30;;;;;;;1.52;0.77;;;;;;;18.14;59.15;101850.66;5078313;27;96555;-34
2022/07/03 01:17:01;;;;;;;1.80;0.45;;;;;;;18.09;58.32;101841.91;5077464;27;97489;-35
2022/07/03 01:19:42;;;;;;;2.27;0.40;;;;;;;18.05;58.50;101829.44;5077403;27;97348;-35
2022/07/03 01:22:16;;;;;;;1.10;0.52;;;;;;;18.12;58.43;101841.66;5077427;27;96598;-35
2022/07/03 01:24:53;;;;;;;0.93;0.55;;;;;;;18.13;58.93;101843.41;5077782;27;96464;-35
2022/07/03 01:27:33;;;;;;;1.48;0.70;;;;;;;18.07;58.81;101835.66;5077285;27;97974;-35
2022/07/03 01:30:07;;;;;;;1.70;0.60;;;;;;;18.07;59.61;101838.41;5075597;27;100961;-35
2022/07/03 01:32:56;;;;;;;5.22;0.50;;;;;;;18.08;59.63;101840.16;5075649;27;96920;-35
2022/07/03 01:35:32;;;;;;;2.50;0.57;;;;;;;18.03;58.90;101831.41;5076024;27;96718;-35
2022/07/03 01:38:01;;;;;;;0.77;0.35;;;;;;;18.06;59.53;101839.38;5075601;27;101296;-35
2022/07/03 01:40:28;;;;;;;0.30;0.30;;;;;;;17.99;59.09;101828.00;5075917;27;100816;-35
2022/07/03 01:42:54;;;;;;;2.90;0.55;;;;;;;17.98;59.18;101820.78;5075825;27;96612;-35
2022/07/03 01:45:21;;;;;;;1.58;0.38;;;;;;;18.02;59.86;101819.56;5075852;27;96853;-35
2022/07/03 01:47:47;;;;;;;1.10;0.60;;;;;;;18.01;58.96;101816.94;5074970;27;100922;-35
2022/07/03 01:50:14;;;;;;;4.15;0.75;;;;;;;18.04;59.40;101820.34;5075477;27;97791;-35
2022/07/03 01:52:42;;;;;;;1.20;0.63;;;;;;;18.06;60.16;101822.94;5075465;27;96699;-35
2022/07/03 01:55:13;;;;;;;0.98;0.60;;;;;;;17.99;60.21;101817.03;5075814;27;96895;-35
2022/07/03 01:57:47;;;;;;;0.52;0.40;;;;;;;18.01;60.43;101820.53;5075308;27;101040;-35
2022/07/03 02:00:18;;;;;;;2.50;0.57;;;;;;;17.95;60.11;101815.56;5075231;27;101046;-35
2022/07/03 02:02:49;;;;;;;0.55;0.40;;;;;;;18.02;61.03;101816.81;5076968;27;98029;-35
2022/07/03 02:05:33;;;;;;;1.70;0.97;;;;;;;18.01;61.04;101823.28;5077579;27;96831;-35
2022/07/03 02:08:14;;;;;;;1.17;0.28;;;;;;;17.98;60.52;101829.03;5074739;27;100843;-34
2022/07/03 02:10:58;;;;;;;1.23;0.32;;;;;;;17.91;61.10;101813.16;5076728;27;97834;-35
2022/07/03 02:13:27;;;;;;;0.30;0.30;;;;;;;17.91;60.34;101813.16;5074853;27;96515;-34
2022/07/03 02:15:53;;;;;;;3.13;0.60;;;;;;;17.94;60.39;101815.66;5075377;27;96912;-34
2022/07/03 02:18:34;;;;;;;1.52;0.25;;;;;;;17.93;60.90;101816.66;5076319;27;99332;-35
2022/07/03 02:21:14;;;;;;;0.52;0.35;;;;;;;17.86;61.26;101804.44;5074963;27;101113;-35
2022/07/03 02:23:58;;;;;;;0.43;0.40;;;;;;;17.90;62.33;101809.56;5075260;27;96657;-34
2022/07/03 02:26:34;;;;;;;2.00;0.60;;;;;;;17.87;61.37;101800.69;5076591;27;96656;-35
2022/07/03 02:29:08;;;;;;;0.20;0.20;;;;;;;17.92;61.16;101812.16;5074755;27;101155;-34
2022/07/03 02:31:41;;;;;;;4.90;0.77;;;;;;;17.86;61.52;101798.94;5075127;27;100711;-34
2022/07/03 02:34:07;;;;;;;0.73;0.40;;;;;;;17.84;61.55;101796.31;5074972;27;96544;-35
2022/07/03 02:36:35;;;;;;;2.13;0.73;;;;;;;17.84;61.41;101804.53;5076371;27;96793;-34
2022/07/03 02:39:00;;;;;;;0.40;0.40;;;;;;;17.83;61.68;101805.53;5074262;27;98979;-35
2022/07/03 02:41:50;;;;;;;5.00;0.68;;;;;;;17.88;63.11;101808.81;5076088;27;97834;-35
2022/07/03 02:44:40;;;;;;;4.60;0.75;;;;;;;17.85;62.22;101809.00;5076167;27;96516;-35
2022/07/03 02:47:12;;;;;;;1.92;0.73;;;;;;;17.85;63.17;101797.19;5075045;27;96642;-35
2022/07/03 02:49:56;;;;;;;1.30;0.73;;;;;;;17.81;62.81;101794.69;5075761;27;97406;-34
2022/07/03 02:52:43;;;;;;;2.65;0.50;;;;;;;17.86;62.25;101799.81;5074319;27;100494;-35
2022/07/03 02:55:21;;;;;;;0.73;0.50;;;;;;;17.85;62.08;101800.78;5074913;27;96651;-35
2022/07/03 02:57:55;;;;;;;1.67;0.68;;;;;;;17.83;62.84;101811.91;5075237;27;96672;-34
2022/07/03 03:00:23;;;;;;;2.63;0.70;;;;;;;17.79;63.62;101796.63;5074398;27;101401;-35
2022/07/03 03:02:55;;;;;;;0.73;0.40;;;;;;;17.79;63.61;101817.69;5073883;27;100872;-35
2022/07/03 03:05:20;;;;;;;4.70;0.50;;;;;;;17.76;64.25;101807.84;5074357;27;96545;-35
2022/07/03 03:08:06;;;;;;;0.30;0.30;;;;;;;17.74;63.57;101815.31;5075854;27;96987;-35
2022/07/03 03:10:35;;;;;;;1.90;1.05;;;;;;;17.69;63.41;101800.22;5075310;27;99420;-35
2022/07/03 03:13:07;;;;;;;0.70;0.40;;;;;;;17.68;62.98;101792.97;5073995;27;100739;-35
2022/07/03 03:15:34;;;;;;;1.83;0.57;;;;;;;17.75;63.42;101813.44;5074308;27;96736;-35
2022/07/03 03:18:09;;;;;;;8.55;0.68;;;;;;;17.74;63.36;101809.81;5074351;27;96822;-35
2022/07/03 03:20:36;;;;;;;2.67;0.43;;;;;;;17.75;63.36;101808.81;5074134;27;100862;-35
2022/07/03 03:23:16;;;;;;;1.83;0.50;;;;;;;17.75;63.26;101808.81;5074287;27;101229;-35
2022/07/03 03:25:41;;;;;;;1.58;0.70;;;;;;;17.70;63.68;101801.94;5074505;27;96541;-34
2022/07/03 03:28:07;;;;;;;2.00;0.90;;;;;;;17.72;63.04;101806.31;5075802;27;97356;-35
2022/07/03 03:30:34;;;;;;;1.25;0.50;;;;;;;17.68;62.80;101802.06;5074969;27;97924;-34
2022/07/03 03:33:00;;;;;;;1.45;0.90;;;;;;;17.66;63.68;101801.28;5056601;27;101383;-35
2022/07/03 03:35:25;;;;;;;1.80;0.75;;;;;;;17.73;63.54;101809.94;5075733;27;96746;-35
2022/07/03 03:37:50;;;;;;;0.65;0.45;;;;;;;17.65;64.04;101801.44;5075688;27;96771;-35
2022/07/03 03:40:17;;;;;;;4.35;0.75;;;;;;;17.63;64.00;101801.53;5075317;27;97908;-34
2022/07/03 03:42:42;;;;;;;2.50;0.80;;;;;;;17.56;64.73;101803.00;5073476;27;100683;-35
2022/07/03 03:45:08;;;;;;;1.90;0.73;;;;;;;17.61;64.07;101817.22;5075562;27;96652;-35
2022/07/03 03:47:34;;;;;;;2.03;0.68;;;;;;;17.62;64.01;101814.38;5074236;27;96778;-35
2022/07/03 03:50:00;;;;;;;1.63;0.57;;;;;;;17.59;64.32;101806.38;5073495;27;98851;-35
2022/07/03 03:52:26;;;;;;;4.22;0.98;;;;;;;17.65;64.48;101816.00;5075012;27;97427;-35
2022/07/03 03:54:51;;;;;;;1.95;0.60;;;;;;;17.66;65.90;101809.50;5074842;27;96597;-35
2022/07/03 03:57:21;;;;;;;0.80;0.47;;;;;;;17.63;66.24;101818.84;5074352;27;102699;-35
2022/07/03 03:59:47;;;;;;;2.65;0.63;;;;;;;17.59;64.77;101824.66;5073429;27;101063;-35
2022/07/03 04:02:14;;;;;;;4.53;0.55;;;;;;;17.56;65.35;101813.97;5073319;27;100823;-35
2022/07/03 04:04:39;;;;;;;5.07;0.77;;;;;;;17.51;65.10;101807.94;5073768;27;96832;-35
2022/07/03 04:07:05;;;;;;;1.17;0.65;;;;;;;17.52;65.06;101799.63;5073734;27;96620;-35
2022/07/03 04:09:30;;;;;;;6.75;0.90;;;;;;;17.52;65.15;101802.38;5074481;27;96801;-34
2022/07/03 04:11:56;;;;;;;2.58;0.82;;;;;;;17.53;65.23;101811.47;5075198;27;97262;-35
2022/07/03 04:14:21;;;;;;;1.45;0.73;;;;;;;17.56;65.14;101824.91;5076655;27;96504;-35
2022/07/03 04:16:47;;;;;;;3.15;0.52;;;;;;;17.49;66.22;101799.84;5078773;27;96801;-35
2022/07/03 04:19:12;;;;;;;3.70;0.85;;;;;;;17.52;64.93;101805.09;5077618;27;104648;-35
2022/07/03 04:21:37;;;;;;;3.53;0.77;;;;;;;17.58;65.85;101823.81;5078470;27;97328;-35
2022/07/03 04:24:03;;;;;;;4.95;0.95;;;;;;;17.55;66.05;101824.03;5078389;27;96599;-35
2022/07/03 04:26:28;;;;;;;1.25;0.60;;;;;;;17.54;65.82;101814.09;5078208;27;96866;-35
2022/07/03 04:28:54;;;;;;;1.05;0.60;;;;;;;17.53;67.45;101819.69;5078245;27;97398;-35
2022/07/03 04:31:19;;;;;;;6.60;0.77;;;;;;;17.48;68.38;101816.41;5077822;27;107295;-35
2022/07/03 04:33:44;;;;;;;2.25;0.88;;;;;;;17.50;65.85;101819.91;5077690;27;101763;-35
2022/07/03 04:36:09;;;;;;;5.78;0.70;;;;;;;17.55;66.06;101829.53;5078760;27;96782;-35
2022/07/03 04:38:35;;;;;;;1.90;0.70;;;;;;;17.52;66.27;101818.81;5077956;27;99237;-35
2022/07/03 04:41:00;;;;;;;1.13;0.40;;;;;;;17.55;66.05;101825.91;5077927;27;97930;-34
2022/07/03 04:43:25;;;;;;;2.45;0.60;;;;;;;17.57;65.72;101823.94;5077778;27;96548;-35
2022/07/03 04:45:51;;;;;;;3.38;0.60;;;;;;;17.60;65.67;101826.44;5078371;27;96792;-35
2022/07/03 04:48:16;;;;;;;2.05;0.60;;;;;;;17.60;65.85;101827.31;5077958;27;97461;-35
2022/07/03 04:50:41;;;;;;;5.85;0.77;;;;;;;17.63;65.98;101832.53;5077893;27;97165;-35
2022/07/03 04:53:07;;;;;;;2.63;0.85;;;;;;;17.56;66.51;101820.31;5077853;27;97001;-35
2022/07/03 04:55:32;;;;;;;1.83;0.57;;;;;;;17.59;66.58;101833.78;5077993;27;96782;-34
2022/07/03 04:57:57;;;;;;;1.95;0.73;;;;;;;17.49;66.57;101810.78;5078120;27;97418;-35
2022/07/03 05:00:23;;;;;;;1.02;0.57;;;;;;;17.63;66.37;101837.16;5078092;27;97865;-34
2022/07/03 05:02:48;;;;;;;2.25;0.57;;;;;;;17.61;67.16;101833.66;5078342;27;96473;-35
2022/07/03 05:05:13;;;;;;;1.30;0.80;;;;;;;17.55;66.17;101815.81;5077827;27;96912;-35
2022/07/03 05:07:39;;;;;;;1.40;0.70;;;;;;;17.65;66.22;101829.69;5076321;27;99486;-35
2022/07/03 05:10:05;;;;;;;4.55;1.02;;;;;;;17.65;66.38;101829.69;5076054;27;100939;-35
2022/07/03 05:12:30;;;;;;;0.93;0.47;;;;;;;17.76;66.42;101835.25;5076355;27;96501;-35
2022/07/03 05:14:56;;;;;;;2.53;0.77;;;;;;;17.79;66.39;101843.22;5077736;27;96784;-35
2022/07/03 05:17:21;;;;;;;1.17;0.60;;;;;;;17.83;66.13;101843.91;5077340;27;99334;-34
2022/07/03 05:19:46;;;;;;;5.05;1.00;;;;;;;17.80;66.32;101839.53;5077311;27;102659;-34
2022/07/03 05:22:12;;;;;;;3.45;1.02;;;;;;;17.86;67.73;101851.03;5077848;27;96617;-35
2022/07/03 05:24:37;;;;;;;1.70;1.00;;;;;;;17.89;66.91;101853.53;5077917;27;96810;-35
2022/07/03 05:27:03;;;;;;;3.47;1.08;;;;;;;17.92;66.08;101850.53;5077288;27;97946;-35
2022/07/03 05:29:29;;;;;;;5.13;1.20;;;;;;;17.96;67.24;101852.94;5077093;27;97834;-35
2022/07/03 05:31:54;;;;;;;5.65;1.10;;;;;;;17.94;67.64;101849.44;5076881;27;96427;-35
2022/07/03 05:34:20;;;;;;;2.67;0.65;;;;;;;17.96;65.95;101855.66;5077504;27;96871;-35
2022/07/03 05:36:51;;;;;;;10.88;1.60;;;;;;;17.86;67.19;101849.16;5076903;27;103798;-35
2022/07/03 05:39:31;;;;;;;4.78;1.20;;;;;;;17.92;67.00;101851.41;5076773;27;99693;-35
2022/07/03 05:41:57;;;;;;;3.53;1.50;;;;;;;17.94;65.96;101848.56;5077693;27;96601;-35
2022/07/03 05:44:22;;;;;;;8.25;1.30;;;;;;;17.92;65.98;101854.16;5075980;27;96847;-35
2022/07/03 05:46:47;;;;;;;4.32;1.10;;;;;;;17.94;66.27;101852.16;5076833;27;98294;-35
2022/07/03 05:49:13;;;;;;;5.28;1.70;;;;;;;18.06;66.73;101866.81;5077056;27;99089;-35
2022/07/03 05:51:38;;;;;;;4.55;0.93;;;;;;;18.15;66.01;101848.78;5076859;27;96595;-35
2022/07/03 05:54:03;;;;;;;3.30;1.40;;;;;;;18.25;66.52;101858.91;5077162;27;96830;-35
2022/07/03 05:56:29;;;;;;;2.45;1.10;;;;;;;18.34;65.80;101864.69;5076305;27;97936;-35
2022/07/03 05:58:54;;;;;;;9.40;1.25;;;;;;;18.39;66.46;101843.22;5077032;27;97365;-35
2022/07/03 06:01:19;;;;;;;1.77;0.93;;;;;;;18.43;65.83;101852.97;5077138;27;96469;-35
2022/07/03 06:03:45;;;;;;;7.47;1.55;;;;;;;18.43;65.25;101842.88;5076736;27;96850;-35
2022/07/03 06:06:16;;;;;;;5.30;1.25;;;;;;;18.51;66.20;101845.00;5076824;27;97380;-35
2022/07/03 06:08:41;;;;;;;4.65;0.93;;;;;;;18.60;65.39;101849.75;5076379;27;97290;-34
2022/07/03 06:11:07;;;;;;;2.35;0.93;;;;;;;18.72;65.81;101858.91;5076892;27;96608;-35
2022/07/03 06:13:32;;;;;;;3.08;1.23;;;;;;;18.76;66.61;101846.72;5075698;27;96837;-34
2022/07/03 06:15:57;;;;;;;2.55;0.93;;;;;;;18.83;65.52;101845.22;5076030;27;104378;-35
2022/07/03 06:18:23;;;;;;;6.20;1.20;;;;;;;18.94;65.31;101858.06;5076378;27;97714;-35
2022/07/03 06:20:48;;;;;;;6.93;1.20;;;;;;;18.95;64.94;101846.09;5076125;27;96581;-35
2022/07/03 06:23:14;;;;;;;3.45;1.33;;;;;;;19.13;64.51;101851.09;5076639;27;96769;-35
2022/07/03 06:25:39;;;;;;;6.47;1.30;;;;;;;19.20;64.38;101855.06;5076379;27;97921;-35
2022/07/03 06:28:04;;;;;;;9.00;1.27;;;;;;;19.17;65.17;101855.34;5076438;27;97390;-35
2022/07/03 06:30:30;;;;;;;6.43;1.25;;;;;;;19.16;64.88;101848.94;5076528;27;96470;-34
2022/07/03 06:32:55;;;;;;;3.60;0.80;;;;;;;19.31;64.97;101844.94;5076605;27;96887;-34
2022/07/03 06:35:20;;;;;;;3.65;1.33;;;;;;;19.47;64.41;101843.66;5075865;27;108050;-34
2022/07/03 06:37:45;;;;;;;3.78;1.73;;;;;;;19.64;63.86;101858.75;5075436;27;97387;-35
2022/07/03 06:40:11;;;;;;;3.13;1.27;;;;;;;19.69;63.64;101842.78;5076314;27;96578;-34
2022/07/03 06:42:36;;;;;;;11.35;1.60;;;;;;;19.89;63.73;101850.19;5076608;27;96804;-34
2022/07/03 06:45:02;;;;;;;2.13;1.13;;;;;;;19.88;62.78;101845.72;5075625;27;97852;-34
2022/07/03 06:47:27;;;;;;;2.17;1.05;;;;;;;19.80;63.20;101834.47;5075899;27;99119;-35
2022/07/03 06:49:52;;;;;;;8.30;1.48;;;;;;;19.92;63.43;101847.19;5076320;27;96529;-34
2022/07/03 06:52:18;;;;;;;5.00;1.35;;;;;;;19.92;63.28;101840.81;5075721;27;96844;-35
2022/07/03 06:54:43;;;;;;;3.30;1.17;;;;;;;20.01;62.68;101848.28;5075746;27;98732;-34
2022/07/03 06:57:10;;;;;;;6.40;1.45;;;;;;;20.02;62.34;101843.66;5075576;27;99288;-34
2022/07/03 06:59:36;;;;;;;2.03;1.05;;;;;;;19.75;63.83;101842.25;5074698;27;96758;-35
2022/07/03 07:02:01;;;;;;;9.43;1.52;;;;;;;19.73;63.61;101847.91;5076370;27;96824;-34
2022/07/03 07:04:27;;;;;;;2.25;1.20;;;;;;;19.87;63.14;101838.47;5075396;27;101051;-35
2022/07/03 07:06:52;;;;;;;7.15;1.27;;;;;;;19.89;62.89;101857.59;5075611;27;97811;-35
2022/07/03 07:09:18;;;;;;;4.45;1.63;;;;;;;19.80;62.91;101855.63;5075025;27;96646;-34
2022/07/03 07:11:43;;;;;;;3.92;1.05;;;;;;;19.89;62.81;101855.69;5075953;27;96878;-34
2022/07/03 07:14:09;;;;;;;2.38;1.40;;;;;;;20.02;62.88;101862.91;5075423;27;104700;-35
2022/07/03 07:16:34;;;;;;;4.38;1.80;;;;;;;19.99;62.50;101857.66;5075548;27;99144;-35
2022/07/03 07:18:59;;;;;;;3.67;1.40;;;;;;;20.07;62.35;101868.88;5075693;27;97144;-34
2022/07/03 07:21:25;;;;;;;5.53;1.65;;;;;;;20.17;62.58;101871.75;5075107;27;96776;-35
2022/07/03 07:23:50;;;;;;;2.33;1.58;;;;;;;20.26;62.46;101874.56;5075468;27;97940;-35
2022/07/03 07:26:15;;;;;;;7.15;1.70;;;;;;;20.27;62.08;101869.94;5075975;27;97869;-34
2022/07/03 07:28:41;;;;;;;3.67;1.45;;;;;;;20.24;62.44;101879.34;5075475;27;96602;-35
2022/07/03 07:31:06;;;;;;;1.92;1.35;;;;;;;20.15;62.47;101882.88;5075745;27;96921;-34
2022/07/03 07:33:31;;;;;;;7.57;1.67;;;;;;;20.06;62.55;101870.75;5074048;27;116316;-34
2022/07/03 07:35:57;;;;;;;2.60;1.27;;;;;;;20.04;62.76;101882.91;5075043;27;97383;-35
2022/07/03 07:38:22;;;;;;;3.72;1.38;;;;;;;19.92;62.64;101876.56;5073813;27;96582;-35
2022/07/03 07:40:47;;;;;;;6.90;1.55;;;;;;;19.99;62.91;101882.44;5073565;27;96845;-35
2022/07/03 07:43:13;;;;;;;3.45;1.45;;;;;;;20.02;62.85;101877.56;5073306;27;97898;-35
2022/07/03 07:45:39;;;;;;;3.38;1.50;;;;;;;19.96;62.81;101885.44;5074692;27;98595;-34
2022/07/03 07:48:05;;;;;;;3.22;1.52;;;;;;;20.07;62.44;101878.03;5075005;27;97205;-34
2022/07/03 07:50:30;;;;;;;4.22;1.98;;;;;;;20.19;62.14;101888.97;5077741;27;96842;-35
2022/07/03 07:52:56;;;;;;;7.15;1.48;;;;;;;20.22;61.60;101877.72;5078600;27;98031;-34
2022/07/03 07:55:21;;;;;;;2.13;1.15;;;;;;;20.42;61.46;101884.25;5078589;27;99119;-35
2022/07/03 07:57:48;;;;;;;4.50;1.80;;;;;;;20.43;61.60;101886.88;5078490;27;96524;-34
2022/07/03 08:00:16;;;;;;;5.68;1.52;;;;;;;20.34;61.75;101883.03;5077435;27;96913;-35
2022/07/03 08:05:35;;;;;;;3.78;1.60;;;;;;;20.39;62.10;101901.03;5079054;27;96925;-35
2022/07/03 08:08:01;;;;;;;5.55;1.42;;;;;;;20.30;61.52;101889.78;5078335;27;96777;-35
2022/07/03 08:10:26;;;;;;;4.13;1.58;;;;;;;20.43;61.76;101897.00;5078936;27;96893;-34
2022/07/03 08:12:51;;;;;;;5.18;1.52;;;;;;;20.36;61.74;101896.66;5078590;27;97990;-34
2022/07/03 08:15:17;;;;;;;5.57;2.17;;;;;;;20.32;61.76;101903.44;5078421;27;111989;-35
2022/07/03 08:17:42;;;;;;;4.10;2.05;;;;;;;20.27;62.20;101912.06;5078563;27;96676;-34
2022/07/03 08:20:08;;;;;;;3.78;1.40;;;;;;;20.11;62.26;101895.13;5078750;27;96769;-34
2022/07/03 08:22:34;;;;;;;6.10;1.50;;;;;;;20.24;62.27;101901.34;5077827;27;99456;-35
2022/07/03 08:24:59;;;;;;;4.45;2.08;;;;;;;20.39;62.21;101903.78;5077888;27;109455;-34
2022/07/03 08:27:24;;;;;;;4.22;1.58;;;;;;;20.53;61.64;101898.81;5078642;27;96553;-35
2022/07/03 08:29:50;;;;;;;3.22;1.58;;;;;;;20.63;61.89;101900.78;5078541;27;96834;-35
2022/07/03 08:32:15;;;;;;;4.38;1.77;;;;;;;20.75;61.49;101896.97;5078136;27;97367;-35
2022/07/03 08:34:40;;;;;;;2.80;1.52;;;;;;;20.75;61.36;101895.06;5077445;27;115537;-35
2022/07/03 08:37:06;;;;;;;5.93;1.67;;;;;;;20.70;61.27;101891.00;5077995;27;98567;-35
2022/07/03 08:39:31;;;;;;;4.63;2.05;;;;;;;20.70;61.08;101897.38;5078721;27;96793;-34
2022/07/03 08:41:58;;;;;;;5.80;1.70;;;;;;;20.62;61.57;101888.03;5076413;27;99127;-35
2022/07/03 08:44:24;;;;;;;4.55;1.58;;;;;;;20.86;61.07;101893.28;5076508;27;100683;-35
2022/07/03 08:46:51;;;;;;;1.27;0.90;;;;;;;20.83;60.09;101885.25;5077556;27;96840;-35
2022/07/03 08:49:19;;;;;;;2.75;1.23;;;;;;;20.88;60.67;101896.75;5078116;27;96754;-35
2022/07/03 08:51:45;;;;;;;4.85;1.63;;;;;;;20.86;60.40;101887.78;5076223;27;99348;-35
2022/07/03 08:54:11;;;;;;;7.38;1.75;;;;;;;20.83;60.73;101893.53;5076207;27;100874;-35
2022/07/03 08:56:36;;;;;;;4.20;1.65;;;;;;;20.75;60.88;101885.94;5078134;27;96558;-35
2022/07/03 08:59:07;;;;;;;6.97;1.67;;;;;;;20.72;60.90;101887.09;5077924;27;96683;-35
2022/07/03 09:01:33;;;;;;;9.18;1.70;;;;;;;20.77;61.03;101886.69;5077323;27;98011;-35
2022/07/03 09:03:58;;;;;;;9.27;2.28;;;;;;;20.74;61.06;101885.09;5076461;27;100992;-35
2022/07/03 09:06:23;;;;;;;3.45;1.75;;;;;;;20.59;61.08;101880.91;5078075;27;96406;-34
2022/07/03 09:08:49;;;;;;;8.45;2.13;;;;;;;20.48;60.97;101886.47;5077575;27;96778;-35
2022/07/03 09:11:15;;;;;;;4.85;1.63;;;;;;;20.48;61.01;101875.47;5076957;27;97413;-34
2022/07/03 09:13:41;;;;;;;8.77;1.90;;;;;;;20.35;61.26;101876.53;5077592;27;97729;-34
2022/07/03 09:16:14;;;;;;;4.95;1.80;;;;;;;20.32;61.83;101887.78;5076108;27;96764;-35
2022/07/03 09:18:42;;;;;;;2.72;1.60;;;;;;;20.35;61.71;101887.53;5076445;27;96490;-35
2022/07/03 09:21:08;;;;;;;5.30;2.20;;;;;;;20.30;62.02;101887.03;5075792;27;100807;-34
2022/07/03 09:23:43;;;;;;;7.20;2.05;;;;;;;20.29;62.10;101901.81;5075791;27;100967;-35
2022/07/03 09:26:17;;;;;;;6.20;2.47;;;;;;;20.21;62.75;101908.97;5076138;27;96625;-34
2022/07/03 09:28:43;;;;;;;4.57;1.50;;;;;;;20.09;63.57;101916.38;5076501;27;96837;-34
2022/07/03 09:31:09;;;;;;;7.70;1.90;;;;;;;19.99;63.91;101918.19;5076995;27;99391;-35
2022/07/03 09:33:35;;;;;;;3.80;1.92;;;;;;;19.87;65.28;101912.69;5076863;27;97221;-35
2022/07/03 09:36:00;;;;;;;4.00;1.58;;;;;;;19.92;64.74;101915.06;5076984;27;96546;-34
2022/07/03 09:38:25;;;;;;;9.27;2.05;;;;;;;19.87;64.36;101920.97;5077516;27;96799;-34
2022/07/03 09:40:54;;;;;;;3.70;1.58;;;;;;;19.82;65.05;101917.72;5077163;27;98000;-34
2022/07/03 09:43:25;;;;;;;4.93;1.77;;;;;;;19.82;65.05;101925.97;5075591;27;101166;-34
2022/07/03 09:45:53;;;;;;;2.70;1.35;;;;;;;19.85;65.00;101920.22;5075906;27;96640;-35
2022/07/03 09:48:22;;;;;;;7.72;1.83;;;;;;;19.89;65.04;101926.34;5075851;27;96823;-34
2022/07/03 09:50:48;;;;;;;4.18;1.52;;;;;;;20.05;63.87;101926.78;5075348;27;99085;-35
2022/07/03 09:53:13;;;;;;;5.00;2.10;;;;;;;20.21;63.82;101917.22;5076937;27;97129;-34
2022/07/03 09:55:38;;;;;;;5.38;1.70;;;;;;;20.27;64.63;101923.09;5077138;27;96709;-34
2022/07/03 09:58:04;;;;;;;7.28;2.40;;;;;;;20.49;63.36;101921.22;5076630;27;97758;-34
2022/07/03 10:00:33;;;;;;;5.78;2.15;;;;;;;21.03;62.09;101922.94;5076312;27;97865;-34
2022/07/03 10:03:04;;;;;;;6.10;2.17;;;;;;;21.15;61.77;101919.09;5076587;27;97908;-34
2022/07/03 10:05:31;;;;;;;6.60;1.87;;;;;;;20.97;61.48;101923.47;5077108;27;96475;-35
2022/07/03 10:08:03;;;;;;;5.78;1.85;;;;;;;20.77;61.86;101920.59;5075762;27;96853;-35
2022/07/03 10:10:30;;;;;;;3.75;2.03;;;;;;;20.68;62.04;101915.03;5075103;27;100939;-35
2022/07/03 10:12:57;;;;;;;4.50;2.08;;;;;;;20.60;62.27;101931.34;5073991;27;100825;-34
2022/07/03 10:15:24;;;;;;;6.18;1.60;;;;;;;20.53;62.49;101919.97;5075348;27;96646;-35
2022/07/03 10:17:54;;;;;;;7.20;1.63;;;;;;;20.58;62.03;101935.09;5077177;27;96791;-35
2022/07/03 10:20:39;;;;;;;3.70;1.45;;;;;;;20.51;61.71;101921.97;5074927;27;100915;-35
2022/07/03 10:23:04;;;;;;;9.20;1.90;;;;;;;20.53;62.44;101920.84;5074941;27;100794;-34
2022/07/03 10:25:31;;;;;;;8.85;2.20;;;;;;;20.51;62.06;101927.47;5076308;27;96774;-34
2022/07/03 10:27:57;;;;;;;6.57;1.63;;;;;;;20.48;62.34;101923.13;5075172;27;96825;-35
2022/07/03 10:30:23;;;;;;;7.63;1.95;;;;;;;20.49;62.13;101929.50;5074668;27;101121;-35
2022/07/03 10:32:51;;;;;;;4.40;2.05;;;;;;;20.81;61.19;101923.97;5074346;27;101305;-35
2022/07/03 10:35:37;;;;;;;2.97;1.77;;;;;;;21.35;60.57;101936.56;5074869;27;96707;-35
2022/07/03 10:38:02;;;;;;;4.45;1.52;;;;;;;21.83;59.88;101935.03;5075082;27;96798;-34
2022/07/03 10:46:22;;;;;;;5.28;1.90;;;;;;;21.39;59.47;101932.56;5076900;27;96611;-34
2022/07/03 10:48:57;;;;;;;3.63;1.67;;;;;;;21.24;59.87;101947.72;5074708;27;97866;-34
2022/07/03 10:51:24;;;;;;;10.05;2.35;;;;;;;20.97;60.87;101946.41;5075164;27;99501;-35
2022/07/03 10:53:49;;;;;;;10.35;2.22;;;;;;;20.73;62.74;101954.03;5074236;27;100582;-34
2022/07/03 10:56:15;;;;;;;7.93;1.80;;;;;;;20.41;64.37;101954.94;5076291;27;96408;-34
2022/07/03 10:58:59;;;;;;;7.35;1.75;;;;;;;20.26;64.50;101954.38;5074797;27;96895;-34
2022/07/03 11:01:29;;;;;;;5.78;2.00;;;;;;;20.03;65.35;101955.44;5074246;27;100614;-34
2022/07/03 11:03:55;;;;;;;3.88;1.67;;;;;;;19.91;65.58;101960.97;5074264;27;101137;-34
2022/07/03 11:06:22;;;;;;;3.67;1.88;;;;;;;19.94;65.28;101957.06;5075678;27;96716;-34
2022/07/03 11:09:08;;;;;;;5.10;2.13;;;;;;;20.00;65.81;101944.66;5074473;27;96811;-34
2022/07/03 11:11:56;;;;;;;4.25;1.80;;;;;;;20.08;64.81;101956.78;5074141;27;100666;-34
2022/07/03 11:14:29;;;;;;;2.65;1.60;;;;;;;20.19;65.39;101961.41;5075744;27;97851;-34
2022/07/03 11:17:19;;;;;;;4.00;1.95;;;;;;;20.17;65.30;101946.03;5075170;27;96688;-34
2022/07/03 11:20:23;;;;;;;5.88;2.38;;;;;;;20.22;64.82;101952.00;5075676;27;96831;-34
2022/07/03 11:22:46;;;;;;;5.18;2.20;;;;;;;20.27;65.66;101950.59;5074475;27;99189;-34
2022/07/03 11:25:13;;;;;;;5.20;2.10;;;;;;;20.30;63.96;101942.06;5073815;27;100994;-34
2022/07/03 11:27:38;;;;;;;3.08;2.10;;;;;;;20.36;64.01;101935.19;5074244;27;96668;-34
2022/07/03 11:30:04;;;;;;;7.25;1.92;;;;;;;20.39;63.91;101934.06;5075747;27;96843;-34
2022/07/03 11:32:52;;;;;;;6.07;2.08;;;;;;;20.48;65.49;101941.53;5073628;27;100404;-34
2022/07/03 11:35:47;;;;;;;2.78;1.55;;;;;;;20.46;64.07;101940.78;5075661;27;97982;-34
2022/07/03 11:38:31;;;;;;;3.22;1.52;;;;;;;20.40;64.69;101935.78;5074186;27;96610;-34
2022/07/03 11:40:59;;;;;;;2.40;1.75;;;;;;;20.53;64.27;101933.72;5075374;27;96661;-34